Clare, New York
Current Conditions -  °F | °C
As of 4:58 AM on Wednesday 26 Nov 2014 (Local Time) from KGTB Reporting Station
Broken Clouds Broken Clouds  
Wind Chill: 31°   Ceiling: 3800
Heat Index: 31°   Visibility: 10mi
Dew Point: 24°   Wind: 2mph
Humidity: 77%   Direction: 300°WNW
Pressure: 30.21"   Gusts: NA
Location:  44.3602°N, 75.0433°W
Report Text: KGTB 260958Z AUTO 30002KT 10SM BKN038 M01/M04 A3021 RMK AO2 SLPNO T10061042
Loading
Personal Weather Stations






























Interactive Weather Map New forecast layout! Learn more

10-Day Weather Forecast

Advertisements
Track Severe Weather on mobile